Time;durP1;ratioP1;P1;durP2;ratioP2;P2;SDS_P1;SDS_P2;PMS_P1;PMS_P2;Temp;Humidity;BMP_temperature;BMP_pressure;BME280_temperature;BME280_humidity;BME280_pressure;Samples;Min_cycle;Max_cycle;Signal;HPM_P1;HPM_P2
2022/06/05 00:02:45;;;;;;;11.23;6.47;;;;;;;;;;10406160;28;20013;-72
2022/06/05 00:07:47;;;;;;;12.15;6.20;;;;;;;;;;10406207;28;20021;-71
2022/06/05 00:12:57;;;;;;;24.17;8.23;;;;;;;;;;10406244;28;20041;-74
2022/06/05 00:17:57;;;;;;;11.10;5.60;;;;;;;;;;10405854;28;20023;-70
2022/06/05 00:22:58;;;;;;;11.85;6.25;;;;;;;;;;10407126;28;20454;-73
2022/06/05 00:28:20;;;;;;;9.93;5.80;;;;;;;;;;10405269;28;20031;-72
2022/06/05 00:33:26;;;;;;;14.30;6.75;;;;;;;;;;10405165;28;20017;-71
2022/06/05 00:38:45;;;;;;;13.27;6.22;;;;;;;;;;10404595;28;20022;-70
2022/06/05 00:43:47;;;;;;;7.90;5.55;;;;;;;;;;10405241;28;20034;-70
2022/06/05 00:48:47;;;;;;;14.32;7.95;;;;;;;;;;10406261;28;20049;-70
2022/06/05 00:53:49;;;;;;;10.57;6.43;;;;;;;;;;10406063;28;20013;-71
2022/06/05 00:58:51;;;;;;;9.90;6.85;;;;;;;;;;10419159;28;20028;-70
2022/06/05 01:03:51;;;;;;;18.73;8.13;;;;;;;;;;10387246;28;20021;-70
2022/06/05 01:08:51;;;;;;;13.23;6.90;;;;;;;;;;10386294;28;20454;-70
2022/06/05 01:13:54;;;;;;;16.30;7.35;;;;;;;;;;10404950;28;20148;-71
2022/06/05 01:18:55;;;;;;;14.63;6.85;;;;;;;;;;10403783;28;20018;-69
2022/06/05 01:24:08;;;;;;;16.58;6.47;;;;;;;;;;10404096;28;20041;-75
2022/06/05 01:29:08;;;;;;;17.17;6.97;;;;;;;;;;10403391;28;20079;-71
2022/06/05 01:34:08;;;;;;;12.03;6.43;;;;;;;;;;10403113;28;20013;-72
2022/06/05 01:39:19;;;;;;;13.88;6.80;;;;;;;;;;10402972;28;20018;-70
2022/06/05 01:44:23;;;;;;;12.52;7.25;;;;;;;;;;10386631;28;20563;-71
2022/06/05 01:49:26;;;;;;;15.98;7.45;;;;;;;;;;10400126;28;20025;-71
2022/06/05 01:54:39;;;;;;;17.13;8.23;;;;;;;;;;10403738;28;20021;-72
2022/06/05 01:59:42;;;;;;;14.88;7.70;;;;;;;;;;10401951;28;20018;-71
2022/06/05 02:04:46;;;;;;;13.52;8.05;;;;;;;;;;10403462;28;20083;-71
2022/06/05 02:09:51;;;;;;;14.63;7.00;;;;;;;;;;10401568;28;20021;-70
2022/06/05 02:14:51;;;;;;;13.52;7.50;;;;;;;;;;10402177;28;20052;-71
2022/06/05 02:19:52;;;;;;;11.67;6.93;;;;;;;;;;10401778;28;20132;-72
2022/06/05 02:24:55;;;;;;;13.07;8.05;;;;;;;;;;10400682;28;20084;-70
2022/06/05 02:29:56;;;;;;;17.13;7.38;;;;;;;;;;10402743;28;20041;-70
2022/06/05 02:34:59;;;;;;;11.77;6.90;;;;;;;;;;10402615;28;20029;-74
2022/06/05 02:40:18;;;;;;;13.38;7.68;;;;;;;;;;10401241;28;20021;-71
2022/06/05 02:45:25;;;;;;;13.13;7.60;;;;;;;;;;10401603;28;20021;-71
2022/06/05 02:50:31;;;;;;;10.45;6.93;;;;;;;;;;10401279;28;20076;-71
2022/06/05 02:55:31;;;;;;;17.80;6.95;;;;;;;;;;10401944;28;20032;-69
2022/06/05 03:00:33;;;;;;;12.02;7.32;;;;;;;;;;10401737;28;20031;-70
2022/06/05 03:05:33;;;;;;;12.75;7.20;;;;;;;;;;10401013;28;20634;-78
2022/06/05 03:10:34;;;;;;;18.42;8.80;;;;;;;;;;10400529;28;20026;-77
2022/06/05 03:15:34;;;;;;;21.93;7.73;;;;;;;;;;10416839;28;20119;-70
2022/06/05 03:20:35;;;;;;;16.40;8.73;;;;;;;;;;10400300;28;20026;-70
2022/06/05 03:25:37;;;;;;;18.67;7.93;;;;;;;;;;10400101;28;20342;-69
2022/06/05 03:30:38;;;;;;;15.45;7.03;;;;;;;;;;10399601;28;20458;-69
2022/06/05 03:35:39;;;;;;;16.92;8.52;;;;;;;;;;10392556;28;20088;-71
2022/06/05 03:40:40;;;;;;;12.60;8.10;;;;;;;;;;10368560;28;20050;-69
2022/06/05 03:45:41;;;;;;;14.73;8.35;;;;;;;;;;10367910;28;20037;-73
2022/06/05 03:50:41;;;;;;;15.13;8.40;;;;;;;;;;10406963;28;20245;-74
2022/06/05 03:55:41;;;;;;;13.75;7.57;;;;;;;;;;10406052;28;20021;-72
2022/06/05 04:00:42;;;;;;;16.98;7.90;;;;;;;;;;10367108;28;20539;-71
2022/06/05 04:05:43;;;;;;;17.73;7.57;;;;;;;;;;10367429;28;20101;-74
2022/06/05 04:10:43;;;;;;;15.30;7.60;;;;;;;;;;10393326;28;20036;-70
2022/06/05 04:15:44;;;;;;;19.65;8.07;;;;;;;;;;10407772;28;20025;-73
2022/06/05 04:20:44;;;;;;;14.35;8.82;;;;;;;;;;10406362;28;20101;-70
2022/06/05 04:25:45;;;;;;;18.92;8.18;;;;;;;;;;10405781;28;20057;-70
2022/06/05 04:30:45;;;;;;;12.55;7.60;;;;;;;;;;10407091;28;20037;-70
2022/06/05 04:35:45;;;;;;;12.50;7.72;;;;;;;;;;10405790;28;20025;-69
2022/06/05 04:40:45;;;;;;;10.00;6.88;;;;;;;;;;10389197;28;20521;-70
2022/06/05 04:45:46;;;;;;;10.63;6.72;;;;;;;;;;10405309;28;20026;-68
2022/06/05 04:50:46;;;;;;;14.32;6.32;;;;;;;;;;10421644;28;20033;-75
2022/06/05 04:55:46;;;;;;;9.73;6.35;;;;;;;;;;10404692;28;20104;-71
2022/06/05 05:00:46;;;;;;;11.52;6.18;;;;;;;;;;10404514;28;20017;-71
2022/06/05 05:05:47;;;;;;;12.38;7.00;;;;;;;;;;10404135;28;20021;-71
2022/06/05 05:10:47;;;;;;;10.07;7.07;;;;;;;;;;10404102;28;20121;-71
2022/06/05 05:15:51;;;;;;;12.48;6.38;;;;;;;;;;10404381;28;20036;-70
2022/06/05 05:20:51;;;;;;;11.00;7.03;;;;;;;;;;10403936;28;20483;-70
2022/06/05 05:25:52;;;;;;;12.18;6.63;;;;;;;;;;10403415;28;20060;-71
2022/06/05 05:30:52;;;;;;;12.45;6.95;;;;;;;;;;10403426;28;20052;-75
2022/06/05 05:35:53;;;;;;;12.57;6.40;;;;;;;;;;10403549;28;20543;-70
2022/06/05 05:46:13;;;;;;;20.85;6.95;;;;;;;;;;10407610;28;20021;-72
2022/06/05 05:51:14;;;;;;;10.55;5.60;;;;;;;;;;10384188;28;20025;-77
2022/06/05 05:56:15;;;;;;;11.15;6.05;;;;;;;;;;10361265;28;20018;-70
2022/06/05 06:01:15;;;;;;;16.15;6.25;;;;;;;;;;10362725;28;20042;-71
2022/06/05 06:06:15;;;;;;;14.70;6.72;;;;;;;;;;10395484;28;20113;-72
2022/06/05 06:11:16;;;;;;;13.47;6.50;;;;;;;;;;10393444;28;20029;-72
2022/06/05 06:16:16;;;;;;;11.43;5.45;;;;;;;;;;10380140;28;20653;-71
2022/06/05 06:21:16;;;;;;;15.30;5.78;;;;;;;;;;10401882;28;20028;-72
2022/06/05 06:26:17;;;;;;;13.55;6.00;;;;;;;;;;10400553;28;20052;-70
2022/06/05 06:31:17;;;;;;;12.05;4.90;;;;;;;;;;10401209;28;20025;-71
2022/06/05 06:36:18;;;;;;;13.38;5.53;;;;;;;;;;10398421;28;20017;-71
2022/06/05 06:41:18;;;;;;;15.60;5.70;;;;;;;;;;10400495;28;20075;-73
2022/06/05 06:46:19;;;;;;;14.67;5.57;;;;;;;;;;10401128;28;20029;-71
2022/06/05 06:51:19;;;;;;;17.67;5.70;;;;;;;;;;10403651;28;20343;-71
2022/06/05 06:56:22;;;;;;;10.80;4.82;;;;;;;;;;10390740;28;20025;-71
2022/06/05 07:01:22;;;;;;;8.88;4.72;;;;;;;;;;10388286;28;20087;-72
2022/06/05 07:06:23;;;;;;;11.63;4.97;;;;;;;;;;10400822;28;20087;-71
2022/06/05 07:11:23;;;;;;;11.70;4.90;;;;;;;;;;10406278;28;20025;-72
2022/06/05 07:16:23;;;;;;;12.27;4.43;;;;;;;;;;10377275;28;20025;-74
2022/06/05 07:21:24;;;;;;;10.57;4.35;;;;;;;;;;10401948;28;20323;-73
2022/06/05 07:26:26;;;;;;;15.73;4.75;;;;;;;;;;10365885;28;20053;-75
2022/06/05 07:31:29;;;;;;;6.53;3.50;;;;;;;;;;10370888;28;20029;-71
2022/06/05 07:36:29;;;;;;;7.85;4.05;;;;;;;;;;10409954;28;20087;-75
2022/06/05 07:41:34;;;;;;;8.85;3.50;;;;;;;;;;10382956;28;20559;-72
2022/06/05 07:46:36;;;;;;;6.70;3.90;;;;;;;;;;10349678;28;20050;-76
2022/06/05 07:57:00;;;;;;;16.40;3.70;;;;;;;;;;10367696;28;20500;-71
2022/06/05 08:02:04;;;;;;;9.27;3.50;;;;;;;;;;10365028;28;20018;-71
2022/06/05 08:07:05;;;;;;;9.57;3.08;;;;;;;;;;10371470;28;20040;-72
2022/06/05 08:12:07;;;;;;;6.38;3.13;;;;;;;;;;10401588;28;20126;-71
2022/06/05 08:17:10;;;;;;;6.95;2.70;;;;;;;;;;10397121;28;20049;-78
2022/06/05 08:22:11;;;;;;;10.10;3.20;;;;;;;;;;10401315;28;20017;-76
2022/06/05 08:27:13;;;;;;;9.57;2.80;;;;;;;;;;10393337;28;20041;-74
2022/06/05 08:32:13;;;;;;;6.47;2.78;;;;;;;;;;10402521;28;20511;-71
2022/06/05 08:42:42;;;;;;;6.00;2.05;;;;;;;;;;10391539;28;20096;-70
2022/06/05 08:47:49;;;;;;;5.28;2.67;;;;;;;;;;10399902;28;20025;-75
2022/06/05 08:52:53;;;;;;;6.70;2.72;;;;;;;;;;10398840;28;20096;-71
2022/06/05 08:58:15;;;;;;;4.60;2.38;;;;;;;;;;10402537;28;20109;-70
2022/06/05 09:03:39;;;;;;;9.70;2.47;;;;;;;;;;10402707;28;20022;-69
2022/06/05 09:08:41;;;;;;;3.40;2.30;;;;;;;;;;10391490;28;20021;-72
2022/06/05 09:13:44;;;;;;;4.65;2.47;;;;;;;;;;10396328;28;20510;-70
2022/06/05 09:18:46;;;;;;;4.82;1.88;;;;;;;;;;10402179;28;20025;-70
2022/06/05 09:23:55;;;;;;;5.05;2.33;;;;;;;;;;10390394;28;20050;-69
2022/06/05 09:29:19;;;;;;;5.72;2.20;;;;;;;;;;10393727;28;20382;-73
2022/06/05 09:34:40;;;;;;;6.03;2.00;;;;;;;;;;10388927;28;20026;-74
2022/06/05 09:39:45;;;;;;;7.15;1.80;;;;;;;;;;10395500;28;20052;-74
2022/06/05 09:45:08;;;;;;;4.72;2.10;;;;;;;;;;10407204;28;20041;-73
2022/06/05 09:50:20;;;;;;;9.50;2.25;;;;;;;;;;10399588;28;20030;-70
2022/06/05 09:55:23;;;;;;;7.25;1.88;;;;;;;;;;10389713;28;20083;-76
2022/06/05 10:00:32;;;;;;;8.00;1.92;;;;;;;;;;10396331;28;20035;-75
2022/06/05 10:05:34;;;;;;;5.40;1.65;;;;;;;;;;10395101;28;20487;-75
2022/06/05 10:10:36;;;;;;;3.80;2.00;;;;;;;;;;10398157;28;20029;-73
2022/06/05 10:15:56;;;;;;;4.75;1.63;;;;;;;;;;10410637;28;20037;-74
2022/06/05 10:20:57;;;;;;;4.15;1.40;;;;;;;;;;10396664;28;20459;-74
2022/06/05 10:26:30;;;;;;;4.82;1.25;;;;;;;;;;10389925;28;20076;-70
2022/06/05 10:31:32;;;;;;;6.05;1.75;;;;;;;;;;10352839;28;20099;-73
2022/06/05 10:36:45;;;;;;;4.80;2.20;;;;;;;;;;10397500;28;20515;-74
2022/06/05 10:41:52;;;;;;;3.50;1.63;;;;;;;;;;10385577;28;20385;-72
2022/06/05 10:47:05;;;;;;;3.53;1.65;;;;;;;;;;10396675;28;20087;-70
2022/06/05 10:52:14;;;;;;;5.22;1.80;;;;;;;;;;10414370;28;20045;-72
2022/06/05 10:57:17;;;;;;;10.48;2.00;;;;;;;;;;10381888;28;20111;-73
2022/06/05 11:02:23;;;;;;;3.35;1.83;;;;;;;;;;10401748;28;20029;-75
2022/06/05 11:07:37;;;;;;;3.72;2.00;;;;;;;;;;10416900;28;20028;-70
2022/06/05 11:18:16;;;;;;;6.40;2.25;;;;;;;;;;10483858;22;20052;-71
2022/06/05 11:23:22;;;;;;;4.22;2.75;;;;;;;;;;10424738;28;20063;-73
2022/06/05 11:28:31;;;;;;;5.73;1.97;;;;;;;;;;10424409;28;20021;-74
2022/06/05 11:33:34;;;;;;;4.80;2.13;;;;;;;;;;10391597;28;20403;-72
2022/06/05 11:38:59;;;;;;;3.75;1.90;;;;;;;;;;10400888;28;20033;-71
2022/06/05 11:44:13;;;;;;;2.55;1.95;;;;;;;;;;10410156;28;20021;-75
2022/06/05 11:49:17;;;;;;;5.05;2.47;;;;;;;;;;10413314;28;20104;-74
2022/06/05 11:54:25;;;;;;;7.60;2.00;;;;;;;;;;10384148;28;20036;-73
2022/06/05 11:59:29;;;;;;;6.18;1.95;;;;;;;;;;10404724;28;20028;-76
2022/06/05 12:04:48;;;;;;;4.15;1.60;;;;;;;;;;10418405;28;20056;-74
2022/06/05 12:09:50;;;;;;;7.60;1.45;;;;;;;;;;10392716;28;20124;-70
2022/06/05 12:14:56;;;;;;;6.93;1.75;;;;;;;;;;10382206;28;20129;-74
2022/06/05 12:20:12;;;;;;;2.85;1.27;;;;;;;;;;10348571;28;20500;-73
2022/06/05 12:25:12;;;;;;;1.83;1.20;;;;;;;;;;10348806;28;20024;-71
2022/06/05 12:30:24;;;;;;;4.20;1.95;;;;;;;;;;10348639;28;20026;-71
2022/06/05 12:35:29;;;;;;;5.72;1.98;;;;;;;;;;10347347;28;20500;-76
2022/06/05 12:40:34;;;;;;;2.78;1.50;;;;;;;;;;10366004;28;20021;-71
2022/06/05 12:45:38;;;;;;;3.10;1.50;;;;;;;;;;10371371;28;20077;-70
2022/06/05 12:50:57;;;;;;;6.22;1.83;;;;;;;;;;10348327;28;20524;-75
2022/06/05 12:56:21;;;;;;;5.50;2.10;;;;;;;;;;10346111;28;20021;-75
2022/06/05 13:01:25;;;;;;;8.15;1.92;;;;;;;;;;10342827;28;20447;-76
2022/06/05 13:06:25;;;;;;;2.63;2.00;;;;;;;;;;10347254;28;20057;-75
2022/06/05 13:11:30;;;;;;;11.82;6.78;;;;;;;;;;10346956;28;20033;-74
2022/06/05 13:16:53;;;;;;;2.88;1.13;;;;;;;;;;10346224;28;20054;-73
2022/06/05 13:21:59;;;;;;;2.15;0.90;;;;;;;;;;10345694;28;20026;-74
2022/06/05 13:27:05;;;;;;;2.08;0.90;;;;;;;;;;10397462;28;20488;-76
2022/06/05 13:32:12;;;;;;;3.85;1.30;;;;;;;;;;10352378;28;20034;-71
2022/06/05 13:37:19;;;;;;;4.50;1.45;;;;;;;;;;10386544;28;20030;-72
2022/06/05 13:42:21;;;;;;;5.78;1.15;;;;;;;;;;10383252;28;20479;-71
2022/06/05 13:47:21;;;;;;;1.38;0.80;;;;;;;;;;10384595;28;20518;-71
2022/06/05 13:52:27;;;;;;;5.22;1.50;;;;;;;;;;10383969;28;20030;-73
2022/06/05 13:57:31;;;;;;;2.87;1.23;;;;;;;;;;10426408;23;20098;-75
2022/06/05 14:02:36;;;;;;;2.13;1.10;;;;;;;;;;10466271;28;20021;-73
2022/06/05 14:07:39;;;;;;;0.88;0.68;;;;;;;;;;10463984;28;20016;-72
2022/06/05 14:12:48;;;;;;;5.22;1.65;;;;;;;;;;10436188;28;20090;-70
2022/06/05 14:17:48;;;;;;;3.28;1.48;;;;;;;;;;10414196;28;20029;-70
2022/06/05 14:22:55;;;;;;;5.10;1.85;;;;;;;;;;10415248;28;20119;-71
2022/06/05 14:27:55;;;;;;;;;;;;;;;;;;10409139;28;20017;-70
2022/06/05 14:32:56;;;;;;;3.55;1.70;;;;;;;;;;10414061;28;19932;-70
2022/06/05 14:37:58;;;;;;;10.27;4.57;;;;;;;;;;10417642;28;20020;-71
2022/06/05 14:43:04;;;;;;;4.22;2.30;;;;;;;;;;10432212;28;20463;-69
2022/06/05 14:48:15;;;;;;;6.25;1.88;;;;;;;;;;10408557;28;20037;-71
2022/06/05 14:53:25;;;;;;;4.07;2.08;;;;;;;;;;10405099;28;20029;-72
2022/06/05 14:58:25;;;;;;;4.03;1.83;;;;;;;;;;10429522;28;20052;-72
2022/06/05 15:03:30;;;;;;;4.57;1.77;;;;;;;;;;10421046;28;20025;-75
2022/06/05 15:08:30;;;;;;;3.28;1.58;;;;;;;;;;10403099;28;20036;-70
2022/06/05 15:13:37;;;;;;;1.67;1.35;;;;;;;;;;10399466;28;20085;-73
2022/06/05 15:18:38;;;;;;;5.93;2.45;;;;;;;;;;10405815;28;20026;-76
2022/06/05 15:23:47;;;;;;;4.20;1.85;;;;;;;;;;10414326;28;20034;-74
2022/06/05 15:28:50;;;;;;;4.72;1.60;;;;;;;;;;10414777;28;20026;-71
2022/06/05 15:34:09;;;;;;;2.53;1.20;;;;;;;;;;10419547;28;20029;-72
2022/06/05 15:39:18;;;;;;;8.23;1.42;;;;;;;;;;10423637;28;20124;-73
2022/06/05 15:44:18;;;;;;;3.88;2.13;;;;;;;;;;10424017;28;20025;-73
2022/06/05 15:49:24;;;;;;;7.63;2.05;;;;;;;;;;10414248;28;20067;-71
2022/06/05 15:54:44;;;;;;;3.10;1.57;;;;;;;;;;10401790;28;20341;-72
2022/06/05 15:59:55;;;;;;;2.58;1.83;;;;;;;;;;10407964;28;20087;-72
2022/06/05 16:04:59;;;;;;;7.55;2.85;;;;;;;;;;10405281;28;20060;-72
2022/06/05 16:10:03;;;;;;;4.13;1.27;;;;;;;;;;10418666;28;20579;-71
2022/06/05 16:15:08;;;;;;;2.78;1.63;;;;;;;;;;10419981;28;20052;-72
2022/06/05 16:20:16;;;;;;;3.08;1.50;;;;;;;;;;10422484;28;20029;-72
2022/06/05 16:25:29;;;;;;;4.43;1.83;;;;;;;;;;10429569;28;20155;-71
2022/06/05 16:30:43;;;;;;;8.65;2.38;;;;;;;;;;10420426;28;20033;-75
2022/06/05 16:41:05;;;;;;;6.90;2.10;;;;;;;;;;10427718;28;20029;-73
2022/06/05 16:46:07;;;;;;;4.68;1.95;;;;;;;;;;10414661;28;20586;-72
2022/06/05 16:51:10;;;;;;;3.67;2.00;;;;;;;;;;10420248;28;20475;-71
2022/06/05 16:56:12;;;;;;;3.25;1.70;;;;;;;;;;10430591;28;20130;-73
2022/06/05 17:01:12;;;;;;;3.72;2.00;;;;;;;;;;10421605;28;20127;-71
2022/06/05 17:06:28;;;;;;;1.80;1.57;;;;;;;;;;10421160;28;20086;-72
2022/06/05 17:11:30;;;;;;;4.35;1.60;;;;;;;;;;10419482;28;20434;-76
2022/06/05 17:16:32;;;;;;;7.00;2.30;;;;;;;;;;10413132;28;20021;-74
2022/06/05 17:21:38;;;;;;;6.00;2.20;;;;;;;;;;10414642;28;20017;-74
2022/06/05 17:26:39;;;;;;;6.85;1.80;;;;;;;;;;10398980;28;20029;-72
2022/06/05 17:31:58;;;;;;;2.58;1.50;;;;;;;;;;10393155;28;20034;-74
2022/06/05 17:37:07;;;;;;;5.68;1.88;;;;;;;;;;10403412;28;20538;-76
2022/06/05 17:42:08;;;;;;;3.55;2.08;;;;;;;;;;10401717;28;20017;-71
2022/06/05 17:47:26;;;;;;;5.90;1.92;;;;;;;;;;10404551;28;20021;-71
2022/06/05 17:52:27;;;;;;;4.82;2.00;;;;;;;;;;10384754;28;20047;-72
2022/06/05 17:57:32;;;;;;;7.05;2.28;;;;;;;;;;10406926;28;20049;-74
2022/06/05 18:02:35;;;;;;;3.17;2.28;;;;;;;;;;10404919;28;20507;-72
2022/06/05 18:07:40;;;;;;;8.25;2.70;;;;;;;;;;10415703;28;20025;-73
2022/06/05 18:12:41;;;;;;;7.80;3.22;;;;;;;;;;10416045;28;20260;-72
2022/06/05 18:17:42;;;;;;;12.32;3.38;;;;;;;;;;10426717;28;20026;-73
2022/06/05 18:22:45;;;;;;;10.45;2.97;;;;;;;;;;10391260;28;20029;-73
2022/06/05 18:27:54;;;;;;;9.57;4.57;;;;;;;;;;10399759;28;20029;-74
2022/06/05 18:32:56;;;;;;;11.50;4.60;;;;;;;;;;10405455;28;20031;-73
2022/06/05 18:43:29;;;;;;;10.48;4.38;;;;;;;;;;10421087;28;20021;-72
2022/06/05 18:48:32;;;;;;;13.68;4.63;;;;;;;;;;10401158;28;20059;-76
2022/06/05 18:53:46;;;;;;;9.20;4.30;;;;;;;;;;10388452;28;20120;-72
2022/06/05 18:58:47;;;;;;;8.13;4.30;;;;;;;;;;10402073;28;20052;-75
2022/06/05 19:04:10;;;;;;;14.13;3.78;;;;;;;;;;10402751;28;20021;-72
2022/06/05 19:09:19;;;;;;;5.97;3.20;;;;;;;;;;10409117;28;20021;-74
2022/06/05 19:14:19;;;;;;;9.90;3.63;;;;;;;;;;10410154;28;20051;-77
2022/06/05 19:19:19;;;;;;;9.95;3.25;;;;;;;;;;10407915;28;20025;-76
2022/06/05 19:24:32;;;;;;;5.60;3.17;;;;;;;;;;10401333;28;20470;-72
2022/06/05 19:29:35;;;;;;;6.30;3.40;;;;;;;;;;10393064;28;20534;-78
2022/06/05 19:34:38;;;;;;;7.13;2.70;;;;;;;;;;10408663;28;20411;-74
2022/06/05 19:39:44;;;;;;;7.55;3.58;;;;;;;;;;10410421;28;20064;-73
2022/06/05 19:44:46;;;;;;;10.13;4.65;;;;;;;;;;10404184;28;20037;-71
2022/06/05 19:49:51;;;;;;;8.48;4.55;;;;;;;;;;10395570;28;20097;-71
2022/06/05 19:54:52;;;;;;;13.18;5.43;;;;;;;;;;10406030;28;20026;-75
2022/06/05 20:00:25;;;;;;;6.40;3.50;;;;;;;;;;10395875;28;20087;-73
2022/06/05 20:05:31;;;;;;;5.38;3.88;;;;;;;;;;10532797;22;20087;-71
2022/06/05 20:10:38;;;;;;;6.70;3.97;;;;;;;;;;10463557;28;20024;-74
2022/06/05 20:15:40;;;;;;;7.80;4.18;;;;;;;;;;10467622;28;20037;-74
2022/06/05 20:20:48;;;;;;;5.50;3.30;;;;;;;;;;10441502;28;20031;-72
2022/06/05 20:25:59;;;;;;;6.60;3.92;;;;;;;;;;10470879;28;20556;-78
2022/06/05 20:31:20;;;;;;;6.15;3.88;;;;;;;;;;10471232;28;20454;-73
2022/06/05 20:36:20;;;;;;;6.60;3.75;;;;;;;;;;10470938;28;20402;-71
2022/06/05 20:41:29;;;;;;;9.43;3.47;;;;;;;;;;10470898;28;20020;-72
2022/06/05 20:46:30;;;;;;;8.38;4.57;;;;;;;;;;10470728;28;20534;-76
2022/06/05 20:51:30;;;;;;;8.07;4.50;;;;;;;;;;10470461;28;20181;-70
2022/06/05 20:56:38;;;;;;;7.95;4.95;;;;;;;;;;10470537;28;20020;-72
2022/06/05 21:01:47;;;;;;;11.73;4.50;;;;;;;;;;10453990;28;20044;-71
2022/06/05 21:17:29;;;;;;;8.75;4.55;;;;;;;;;;10487570;28;20028;-75
2022/06/05 21:22:31;;;;;;;6.88;4.60;;;;;;;;;;10466683;28;20025;-71
2022/06/05 21:27:42;;;;;;;7.40;4.50;;;;;;;;;;10469019;28;20418;-71
2022/06/05 21:32:44;;;;;;;10.15;4.93;;;;;;;;;;10469225;28;20417;-72
2022/06/05 21:37:47;;;;;;;7.55;4.50;;;;;;;;;;10468610;28;20123;-71
2022/06/05 21:42:49;;;;;;;6.82;4.45;;;;;;;;;;10468732;28;20119;-77
2022/06/05 21:47:50;;;;;;;9.30;4.88;;;;;;;;;;10468605;28;20024;-71
2022/06/05 21:52:52;;;;;;;6.22;4.07;;;;;;;;;;10468287;28;20052;-71
2022/06/05 21:57:55;;;;;;;6.28;4.50;;;;;;;;;;10468140;28;20033;-73
2022/06/05 22:02:55;;;;;;;4.20;3.70;;;;;;;;;;10485451;28;20025;-72
2022/06/05 22:07:56;;;;;;;10.25;4.20;;;;;;;;;;10467524;28;20032;-71
2022/06/05 22:12:56;;;;;;;15.02;5.03;;;;;;;;;;10457360;28;20025;-72
2022/06/05 22:17:56;;;;;;;8.80;4.55;;;;;;;;;;10445171;28;20021;-73
2022/06/05 22:22:58;;;;;;;7.57;4.30;;;;;;;;;;10444425;28;20028;-71
2022/06/05 22:27:58;;;;;;;10.27;4.82;;;;;;;;;;10428638;28;20035;-73
2022/06/05 22:32:58;;;;;;;10.82;4.75;;;;;;;;;;10428553;28;20495;-71
2022/06/05 22:37:58;;;;;;;8.93;4.85;;;;;;;;;;10426238;28;20041;-71
2022/06/05 22:42:59;;;;;;;9.43;5.10;;;;;;;;;;10411394;28;20028;-76
2022/06/05 22:47:59;;;;;;;11.90;5.27;;;;;;;;;;10443328;28;20443;-72
2022/06/05 22:52:59;;;;;;;10.23;4.57;;;;;;;;;;10426049;28;20084;-72
2022/06/05 22:57:59;;;;;;;4.72;3.88;;;;;;;;;;10444597;28;20025;-73
2022/06/05 23:03:00;;;;;;;5.85;4.35;;;;;;;;;;10451397;28;20029;-73
2022/06/05 23:08:00;;;;;;;5.20;3.85;;;;;;;;;;10466648;28;20028;-75
2022/06/05 23:13:00;;;;;;;7.15;3.70;;;;;;;;;;10442839;28;20021;-71
2022/06/05 23:18:01;;;;;;;7.60;3.03;;;;;;;;;;10426055;28;20021;-74
2022/06/05 23:23:01;;;;;;;10.50;3.37;;;;;;;;;;10425978;28;20028;-73
2022/06/05 23:28:03;;;;;;;6.32;4.25;;;;;;;;;;10443069;28;20025;-70
2022/06/05 23:33:04;;;;;;;5.38;3.78;;;;;;;;;;10426277;28;20024;-73
2022/06/05 23:38:04;;;;;;;5.13;2.45;;;;;;;;;;10443992;28;20411;-73
2022/06/05 23:43:04;;;;;;;3.67;2.97;;;;;;;;;;10442192;28;20013;-71
2022/06/05 23:48:04;;;;;;;8.73;3.30;;;;;;;;;;10443292;28;20104;-73
2022/06/05 23:53:05;;;;;;;5.13;3.00;;;;;;;;;;10431193;28;20052;-73
2022/06/05 23:58:05;;;;;;;4.28;2.92;;;;;;;;;;10432750;28;20108;-72
